createdAt,value
2023-04-18T00:01:44.680Z,8.42
2023-04-18T00:04:12.434Z,8.44
2023-04-18T00:06:39.558Z,8.37
2023-04-18T00:09:06.419Z,8.41
2023-04-18T00:11:33.282Z,8.43
2023-04-18T00:13:59.912Z,8.44
2023-04-18T00:16:28.380Z,8.43
2023-04-18T00:18:55.549Z,8.37
2023-04-18T00:21:22.740Z,8.44
2023-04-18T00:23:52.639Z,8.43
2023-04-18T00:26:19.558Z,8.45
2023-04-18T00:28:46.248Z,8.41
2023-04-18T00:31:12.935Z,8.30
2023-04-18T00:33:39.808Z,8.25
2023-04-18T00:36:06.715Z,8.25
2023-04-18T00:38:33.376Z,8.30
2023-04-18T00:41:00.137Z,8.33
2023-04-18T00:43:26.985Z,8.35
2023-04-18T00:45:54.152Z,8.38
2023-04-18T00:48:21.074Z,8.23
2023-04-18T00:50:47.722Z,8.32
2023-04-18T00:53:15.530Z,8.34
2023-04-18T00:55:42.342Z,8.32
2023-04-18T00:58:09.393Z,8.35
2023-04-18T01:00:36.239Z,8.38
2023-04-18T01:03:03.185Z,8.39
2023-04-18T01:05:30.053Z,8.41
2023-04-18T01:08:01.264Z,8.42
2023-04-18T01:10:29.144Z,8.44
2023-04-18T01:13:18.629Z,8.45
2023-04-18T01:15:47.794Z,8.46
2023-04-18T01:18:18.011Z,8.43
2023-04-18T01:20:47.571Z,8.40
2023-04-18T01:23:15.437Z,8.42
2023-04-18T01:25:42.596Z,8.45
2023-04-18T01:28:09.747Z,8.43
2023-04-18T01:30:36.797Z,8.38
2023-04-18T01:33:05.166Z,8.36
2023-04-18T01:35:32.963Z,8.33
2023-04-18T01:38:00.104Z,8.31
2023-04-18T01:40:26.896Z,8.32
2023-04-18T01:42:56.386Z,8.32
2023-04-18T01:45:23.061Z,8.35
2023-04-18T01:47:49.761Z,8.37
2023-04-18T01:50:16.414Z,8.38
2023-04-18T01:52:43.069Z,8.37
2023-04-18T01:55:10.251Z,8.38
2023-04-18T01:57:36.960Z,8.40
2023-04-18T02:00:08.196Z,8.41
2023-04-18T02:02:34.931Z,8.39
2023-04-18T02:05:01.740Z,8.29
2023-04-18T02:07:28.434Z,8.33
2023-04-18T02:09:55.188Z,8.33
2023-04-18T02:12:21.762Z,8.33
2023-04-18T02:14:52.277Z,8.36
2023-04-18T02:17:21.517Z,8.33
2023-04-18T02:19:48.292Z,8.30
2023-04-18T02:22:14.939Z,8.33
2023-04-18T02:24:41.648Z,8.35
2023-04-18T02:27:08.500Z,8.35
2023-04-18T02:29:38.057Z,8.35
2023-04-18T02:32:05.107Z,8.31
2023-04-18T02:34:33.753Z,8.22
2023-04-18T02:37:00.524Z,8.25
2023-04-18T02:39:27.238Z,8.25
2023-04-18T02:41:53.838Z,8.26
2023-04-18T02:44:20.486Z,8.24
2023-04-18T02:46:47.097Z,8.25
2023-04-18T02:49:13.697Z,8.29
2023-04-18T02:51:40.283Z,8.31
2023-04-18T02:54:06.837Z,8.31
2023-04-18T02:56:33.687Z,8.29
2023-04-18T02:59:00.357Z,8.26
2023-04-18T03:01:26.975Z,8.27
2023-04-18T03:03:53.726Z,8.23
2023-04-18T03:06:20.326Z,8.18
2023-04-18T03:08:46.918Z,8.13
2023-04-18T03:11:13.482Z,8.13
2023-04-18T03:13:40.059Z,8.17
2023-04-18T03:16:07.174Z,8.03
2023-04-18T03:18:33.776Z,8.12
2023-04-18T03:21:00.827Z,8.15
2023-04-18T03:23:27.414Z,8.13
2023-04-18T03:25:54.147Z,8.13
2023-04-18T03:28:20.817Z,8.12
2023-04-18T03:30:47.650Z,8.02
2023-04-18T03:33:17.225Z,8.07
2023-04-18T03:35:43.818Z,8.10
2023-04-18T03:38:10.514Z,8.14
2023-04-18T03:40:37.095Z,8.05
2023-04-18T03:43:03.699Z,8.13
2023-04-18T03:45:30.475Z,8.04
2023-04-18T03:47:57.119Z,8.07
2023-04-18T03:50:25.853Z,7.92
2023-04-18T03:52:52.724Z,7.82
2023-04-18T03:55:19.907Z,7.87
2023-04-18T03:57:47.341Z,7.96
2023-04-18T04:00:14.691Z,7.92
2023-04-18T04:02:41.608Z,8.00
2023-04-18T04:05:09.032Z,7.99
2023-04-18T04:07:36.030Z,7.82
2023-04-18T04:10:02.798Z,7.90
2023-04-18T04:12:29.432Z,7.95
2023-04-18T04:14:56.019Z,7.93
2023-04-18T04:17:22.645Z,7.96
2023-04-18T04:19:50.338Z,7.90
2023-04-18T04:22:17.260Z,7.96
2023-04-18T04:24:44.176Z,7.99
2023-04-18T04:27:12.538Z,8.00
2023-04-18T04:29:39.764Z,8.03
2023-04-18T04:32:06.715Z,8.06
2023-04-18T04:34:34.477Z,8.01
2023-04-18T04:37:01.548Z,7.98
2023-04-18T04:39:28.277Z,8.00
2023-04-18T04:41:55.246Z,7.92
2023-04-18T04:44:22.058Z,7.67
2023-04-18T04:46:49.793Z,7.74
2023-04-18T04:49:16.401Z,7.72
2023-04-18T04:51:43.050Z,7.89
2023-04-18T04:54:09.652Z,7.84
2023-04-18T04:56:36.880Z,7.73
2023-04-18T04:59:06.274Z,7.78
2023-04-18T05:01:33.765Z,7.85
2023-04-18T05:04:00.493Z,7.86
2023-04-18T05:06:27.683Z,7.92
2023-04-18T05:08:56.001Z,7.83
2023-04-18T05:11:22.575Z,7.65
2023-04-18T05:13:49.310Z,7.75
2023-04-18T05:16:16.034Z,7.87
2023-04-18T05:18:42.840Z,7.71
2023-04-18T05:21:09.588Z,7.80
2023-04-18T05:23:37.167Z,7.66
2023-04-18T05:26:05.255Z,7.73
2023-04-18T05:28:32.390Z,7.78
2023-04-18T05:31:01.898Z,7.60
2023-04-18T05:33:29.606Z,7.37
2023-04-18T05:35:57.231Z,7.55
2023-04-18T05:38:24.132Z,7.61
2023-04-18T05:40:55.914Z,7.41
2023-04-18T05:43:23.080Z,7.87
2023-04-18T05:45:52.348Z,7.69
2023-04-18T05:48:19.387Z,7.63
2023-04-18T05:50:46.145Z,7.36
2023-04-18T05:53:12.962Z,7.27
2023-04-18T05:55:41.006Z,7.54
2023-04-18T05:58:07.868Z,7.50
2023-04-18T06:00:34.842Z,7.46
2023-04-18T06:03:01.521Z,7.53
2023-04-18T06:05:28.871Z,7.56
2023-04-18T06:07:55.707Z,7.30
2023-04-18T06:10:22.408Z,7.41
2023-04-18T06:12:49.014Z,7.47
2023-04-18T06:15:15.572Z,7.55
2023-04-18T06:17:42.404Z,7.69
2023-04-18T06:20:09.709Z,7.62
2023-04-18T06:22:36.736Z,7.52
2023-04-18T06:25:03.658Z,7.53
2023-04-18T06:27:31.943Z,7.47
2023-04-18T06:29:58.983Z,7.42
2023-04-18T06:32:25.797Z,7.31
2023-04-18T06:34:53.297Z,7.47
2023-04-18T06:37:20.425Z,7.60
2023-04-18T06:39:47.225Z,7.53
2023-04-18T06:42:13.953Z,7.44
2023-04-18T06:44:42.886Z,7.39
2023-04-18T06:47:11.135Z,7.55
2023-04-18T06:49:37.736Z,7.55
2023-04-18T06:52:04.382Z,7.46
2023-04-18T06:54:31.005Z,7.61
2023-04-18T06:56:57.669Z,7.51
2023-04-18T06:59:24.298Z,7.49
2023-04-18T07:01:51.298Z,7.45
2023-04-18T07:04:18.191Z,7.55
2023-04-18T07:06:45.314Z,7.38
2023-04-18T07:09:11.971Z,7.54
2023-04-18T07:11:40.581Z,7.54
2023-04-18T07:14:07.213Z,7.44
2023-04-18T07:16:34.613Z,7.58
2023-04-18T07:19:01.348Z,7.73
2023-04-18T07:21:28.125Z,7.58
2023-04-18T07:23:54.789Z,7.57
2023-04-18T07:26:21.405Z,7.56
2023-04-18T07:28:49.176Z,7.65
2023-04-18T07:31:16.796Z,7.79
2023-04-18T07:33:43.669Z,7.78
2023-04-18T07:36:10.468Z,7.74
2023-04-18T07:38:37.195Z,7.80
2023-04-18T07:41:04.089Z,7.84
2023-04-18T07:43:30.693Z,7.96
2023-04-18T07:45:57.441Z,7.93
2023-04-18T07:48:25.530Z,7.79
2023-04-18T07:50:52.343Z,7.77
2023-04-18T07:53:19.042Z,7.78
2023-04-18T07:55:46.694Z,7.82
2023-04-18T07:58:13.557Z,7.86
2023-04-18T08:00:42.444Z,7.99
2023-04-18T08:03:12.665Z,8.11
2023-04-18T08:05:40.479Z,7.97
2023-04-18T08:08:08.999Z,8.02
2023-04-18T08:10:36.093Z,8.01
2023-04-18T08:13:03.503Z,8.16
2023-04-18T08:15:32.415Z,8.23
2023-04-18T08:18:00.028Z,8.33
2023-04-18T08:20:27.065Z,8.35
2023-04-18T08:23:06.135Z,8.35
2023-04-18T08:25:36.535Z,8.40
2023-04-18T08:28:04.166Z,8.39
2023-04-18T08:30:31.195Z,8.33
2023-04-18T08:32:58.141Z,8.35
2023-04-18T08:35:24.695Z,8.36
2023-04-18T08:37:51.352Z,8.54
2023-04-18T08:40:18.654Z,8.52
2023-04-18T08:42:45.537Z,8.45
2023-04-18T08:45:15.358Z,8.48
2023-04-18T08:47:42.521Z,8.52
2023-04-18T08:50:10.731Z,8.55
2023-04-18T08:52:39.771Z,8.73
2023-04-18T08:55:07.436Z,8.81
2023-04-18T08:57:36.067Z,8.90
2023-04-18T09:00:10.289Z,8.77
2023-04-18T09:02:43.741Z,8.85
2023-04-18T09:05:21.621Z,8.83
2023-04-18T09:07:50.087Z,8.87
2023-04-18T09:10:38.541Z,8.94
2023-04-18T09:13:05.633Z,9.00
2023-04-18T09:15:32.423Z,9.11
2023-04-18T09:18:02.497Z,9.06
2023-04-18T09:20:44.582Z,9.22
2023-04-18T09:23:14.883Z,9.22
2023-04-18T09:25:44.460Z,9.27
2023-04-18T09:28:30.531Z,9.35
2023-04-18T09:31:19.165Z,9.49
2023-04-18T09:33:57.029Z,9.40
2023-04-18T09:36:27.317Z,9.45
2023-04-18T09:38:56.997Z,9.52
2023-04-18T09:41:24.293Z,9.46
2023-04-18T09:44:12.376Z,9.49
2023-04-18T09:46:40.900Z,9.52
2023-04-18T09:49:10.865Z,9.48
2023-04-18T09:51:40.394Z,9.56
2023-04-18T09:54:08.786Z,9.57
2023-04-18T09:56:38.024Z,9.78
2023-04-18T09:59:09.447Z,9.94
2023-04-18T10:01:36.613Z,10.04
2023-04-18T10:04:06.814Z,10.12
2023-04-18T10:06:39.748Z,10.14
2023-04-18T10:09:09.272Z,10.15
2023-04-18T10:11:36.559Z,10.01
2023-04-18T10:14:07.038Z,10.14
2023-04-18T10:16:35.646Z,10.02
2023-04-18T10:19:21.311Z,9.96
2023-04-18T10:21:55.026Z,10.06
2023-04-18T10:24:50.318Z,10.15
2023-04-18T10:27:17.892Z,10.18
2023-04-18T10:29:50.182Z,10.29
2023-04-18T10:32:22.345Z,10.28
2023-04-18T10:34:50.289Z,10.32
2023-04-18T10:37:18.940Z,10.45
2023-04-18T10:40:00.417Z,10.45
2023-04-18T10:42:45.628Z,10.34
2023-04-18T10:45:22.891Z,10.28
2023-04-18T10:47:49.760Z,10.15
2023-04-18T10:50:17.414Z,10.07
2023-04-18T10:52:44.889Z,10.18
2023-04-18T10:55:16.639Z,10.29
2023-04-18T10:57:44.557Z,10.28
2023-04-18T11:00:14.088Z,10.29
2023-04-18T11:02:47.852Z,10.29
2023-04-18T11:05:18.346Z,10.28
2023-04-18T11:07:46.257Z,10.34
2023-04-18T11:10:13.517Z,10.38
2023-04-18T11:12:41.082Z,10.35
2023-04-18T11:15:22.897Z,10.25
2023-04-18T11:18:02.067Z,10.50
2023-04-18T11:20:30.403Z,10.66
2023-04-18T11:22:58.780Z,10.67
2023-04-18T11:25:29.020Z,10.71
2023-04-18T11:27:59.469Z,10.75
2023-04-18T11:30:26.201Z,10.85
2023-04-18T11:32:54.133Z,10.73
2023-04-18T11:35:20.872Z,10.75
2023-04-18T11:37:49.886Z,10.80
2023-04-18T11:40:16.578Z,10.80
2023-04-18T11:42:43.303Z,10.85
2023-04-18T11:45:14.335Z,10.81
2023-04-18T11:47:43.143Z,10.90
2023-04-18T11:50:12.364Z,10.90
2023-04-18T11:52:41.574Z,10.92
2023-04-18T11:55:21.153Z,10.84
2023-04-18T11:57:55.871Z,10.86
2023-04-18T12:00:31.587Z,10.86
2023-04-18T12:02:59.329Z,10.82
2023-04-18T12:05:28.192Z,10.85
2023-04-18T12:07:55.541Z,10.86
2023-04-18T12:10:22.137Z,10.98
2023-04-18T12:12:54.734Z,10.96
2023-04-18T12:15:24.308Z,10.95
2023-04-18T12:17:53.783Z,11.02
2023-04-18T12:20:20.454Z,11.07
2023-04-18T12:22:51.367Z,11.04
2023-04-18T12:25:26.278Z,11.05
2023-04-18T12:28:01.362Z,10.96
2023-04-18T12:30:34.149Z,10.97
2023-04-18T12:33:04.238Z,11.02
2023-04-18T12:35:31.922Z,10.96
2023-04-18T12:38:02.824Z,11.06
2023-04-18T12:40:30.378Z,11.03
2023-04-18T12:42:56.951Z,11.15
2023-04-18T12:45:24.099Z,11.19
2023-04-18T12:47:52.218Z,11.33
2023-04-18T12:50:25.947Z,11.37
2023-04-18T12:52:59.076Z,11.38
2023-04-18T12:55:26.422Z,11.37
2023-04-18T12:57:57.995Z,11.40
2023-04-18T13:00:27.834Z,11.27
2023-04-18T13:02:54.563Z,11.32
2023-04-18T13:05:24.806Z,11.45
2023-04-18T13:07:58.579Z,11.50
2023-04-18T13:10:28.545Z,11.51
2023-04-18T13:12:55.674Z,11.49
2023-04-18T13:15:22.753Z,11.52
2023-04-18T13:17:49.825Z,11.54
2023-04-18T13:20:16.634Z,11.50
2023-04-18T13:22:43.508Z,11.59
2023-04-18T13:25:10.942Z,11.61
2023-04-18T13:27:41.386Z,11.65
2023-04-18T13:30:10.674Z,11.72
2023-04-18T13:32:39.256Z,11.76
2023-04-18T13:35:08.543Z,11.66
2023-04-18T13:37:35.586Z,11.63
2023-04-18T13:40:05.593Z,11.63
2023-04-18T13:42:33.767Z,11.63
2023-04-18T13:45:00.348Z,11.70
2023-04-18T13:47:27.243Z,11.73
2023-04-18T13:49:53.958Z,11.75
2023-04-18T13:52:20.623Z,11.62
2023-04-18T13:54:50.370Z,11.66
2023-04-18T13:57:16.954Z,11.68
2023-04-18T13:59:43.898Z,11.68
2023-04-18T14:02:11.103Z,11.69
2023-04-18T14:04:38.165Z,11.72
2023-04-18T14:07:06.502Z,12.24
2023-04-18T14:09:33.284Z,12.22
2023-04-18T14:11:59.994Z,11.93
2023-04-18T14:14:26.800Z,11.99
2023-04-18T14:16:54.189Z,11.77
2023-04-18T14:19:21.026Z,11.92
2023-04-18T14:21:48.455Z,12.03
2023-04-18T14:24:15.378Z,12.01
2023-04-18T14:26:42.207Z,12.13
2023-04-18T14:29:11.784Z,12.11
2023-04-18T14:31:42.372Z,12.13
2023-04-18T14:34:11.447Z,12.13
2023-04-18T14:36:39.109Z,12.04
2023-04-18T14:39:07.518Z,11.93
2023-04-18T14:41:35.449Z,11.85
2023-04-18T14:44:10.222Z,11.95
2023-04-18T14:46:38.630Z,11.96
2023-04-18T14:49:05.812Z,11.88
2023-04-18T14:51:32.818Z,11.88
2023-04-18T14:54:06.611Z,11.78
2023-04-18T14:56:34.109Z,11.86
2023-04-18T14:59:02.426Z,11.90
2023-04-18T15:01:29.676Z,11.87
2023-04-18T15:03:56.719Z,11.85
2023-04-18T15:06:23.458Z,11.93
2023-04-18T15:08:50.408Z,11.84
2023-04-18T15:11:16.945Z,11.84
2023-04-18T15:13:44.709Z,11.88
2023-04-18T15:16:11.554Z,11.90
2023-04-18T15:18:38.314Z,11.89
2023-04-18T15:21:06.984Z,11.87
2023-04-18T15:23:34.176Z,11.92
2023-04-18T15:26:00.974Z,11.89
2023-04-18T15:28:28.507Z,11.94
2023-04-18T15:30:55.166Z,11.76
2023-04-18T15:33:21.884Z,11.84
2023-04-18T15:35:48.582Z,11.82
2023-04-18T15:38:15.437Z,11.76
2023-04-18T15:40:43.603Z,11.86
2023-04-18T15:43:17.356Z,11.76
2023-04-18T15:45:44.712Z,11.86
2023-04-18T15:48:13.144Z,11.78
2023-04-18T15:50:40.101Z,11.73
2023-04-18T15:53:06.886Z,11.77
2023-04-18T15:55:34.366Z,11.81
2023-04-18T15:58:01.727Z,11.58
2023-04-18T16:00:29.632Z,11.66
2023-04-18T16:02:56.473Z,11.68
2023-04-18T16:05:23.405Z,11.46
2023-04-18T16:07:50.077Z,11.54
2023-04-18T16:10:16.815Z,11.47
2023-04-18T16:12:43.527Z,11.61
2023-04-18T16:15:11.205Z,11.58
2023-04-18T16:17:38.504Z,11.51
2023-04-18T16:20:09.206Z,11.41
2023-04-18T16:22:37.417Z,11.50
2023-04-18T16:25:04.688Z,11.49
2023-04-18T16:27:33.071Z,11.47
2023-04-18T16:29:59.754Z,11.41
2023-04-18T16:32:26.527Z,11.50
2023-04-18T16:34:53.204Z,11.46
2023-04-18T16:37:20.095Z,11.32
2023-04-18T16:39:47.000Z,11.31
2023-04-18T16:42:15.489Z,11.41
2023-04-18T16:44:42.812Z,11.43
2023-04-18T16:47:09.535Z,11.29
2023-04-18T16:49:39.124Z,11.40
2023-04-18T16:52:05.770Z,11.35
2023-04-18T16:54:32.423Z,11.20
2023-04-18T16:56:59.104Z,11.19
2023-04-18T16:59:26.073Z,10.86
2023-04-18T17:01:52.864Z,10.91
2023-04-18T17:04:19.618Z,11.07
2023-04-18T17:06:46.686Z,11.01
2023-04-18T17:09:14.699Z,11.01
2023-04-18T17:11:41.758Z,11.00
2023-04-18T17:14:08.901Z,10.96
2023-04-18T17:16:38.817Z,10.95
2023-04-18T17:19:05.826Z,10.90
2023-04-18T17:21:34.696Z,11.00
2023-04-18T17:24:03.828Z,10.93
2023-04-18T17:26:31.179Z,10.94
2023-04-18T17:28:57.805Z,10.62
2023-04-18T17:31:24.486Z,10.79
2023-04-18T17:33:51.083Z,10.53
2023-04-18T17:36:17.730Z,10.47
2023-04-18T17:38:50.719Z,10.65
2023-04-18T17:41:19.286Z,10.30
2023-04-18T17:43:46.694Z,10.41
2023-04-18T17:46:14.339Z,10.26
2023-04-18T17:48:41.382Z,10.28
2023-04-18T17:51:08.041Z,10.40
2023-04-18T17:53:34.588Z,10.45
2023-04-18T17:56:01.253Z,10.27
2023-04-18T17:58:28.434Z,10.18
2023-04-18T18:00:55.175Z,10.14
2023-04-18T18:03:21.970Z,10.23
2023-04-18T18:05:49.836Z,10.07
2023-04-18T18:08:17.234Z,10.09
2023-04-18T18:10:46.562Z,10.25
2023-04-18T18:13:13.435Z,9.95
2023-04-18T18:15:40.006Z,9.94
2023-04-18T18:18:06.796Z,9.94
2023-04-18T18:20:33.502Z,9.89
2023-04-18T18:23:00.107Z,9.75
2023-04-18T18:25:27.545Z,9.61
2023-04-18T18:27:54.606Z,9.61
2023-04-18T18:30:21.291Z,9.63
2023-04-18T18:32:47.959Z,9.48
2023-04-18T18:35:14.564Z,9.69
2023-04-18T18:37:41.167Z,9.80
2023-04-18T18:40:08.671Z,9.76
2023-04-18T18:42:35.466Z,9.65
2023-04-18T18:45:03.608Z,9.50
2023-04-18T18:47:30.653Z,9.59
2023-04-18T18:49:57.437Z,9.74
2023-04-18T18:52:30.399Z,9.71
2023-04-18T18:55:03.968Z,9.63
2023-04-18T18:57:34.541Z,9.60
2023-04-18T19:00:12.243Z,9.63
2023-04-18T19:02:46.942Z,9.76
2023-04-18T19:05:24.424Z,9.58
2023-04-18T19:07:52.918Z,9.70
2023-04-18T19:10:24.256Z,9.75
2023-04-18T19:12:53.522Z,9.73
2023-04-18T19:15:28.189Z,9.79
2023-04-18T19:18:08.276Z,9.61
2023-04-18T19:20:35.294Z,9.65
2023-04-18T19:23:07.423Z,9.78
2023-04-18T19:25:46.696Z,9.84
2023-04-18T19:28:20.552Z,9.80
2023-04-18T19:30:51.000Z,9.73
2023-04-18T19:33:19.824Z,9.77
2023-04-18T19:35:46.836Z,9.33
2023-04-18T19:38:19.176Z,9.56
2023-04-18T19:41:12.356Z,9.68
2023-04-18T19:43:43.411Z,9.72
2023-04-18T19:46:15.737Z,9.73
2023-04-18T19:48:42.915Z,9.56
2023-04-18T19:51:12.931Z,9.66
2023-04-18T19:53:45.622Z,9.69
2023-04-18T19:56:29.128Z,9.68
2023-04-18T19:59:02.296Z,9.73
2023-04-18T20:01:31.672Z,9.74
2023-04-18T20:04:01.533Z,9.78
2023-04-18T20:06:30.560Z,9.79
2023-04-18T20:08:57.655Z,9.79
2023-04-18T20:11:31.134Z,9.81
2023-04-18T20:14:02.843Z,9.84
2023-04-18T20:16:35.611Z,9.84
2023-04-18T20:19:03.924Z,9.78
2023-04-18T20:21:31.442Z,9.84
2023-04-18T20:23:59.368Z,9.80
2023-04-18T20:26:33.700Z,9.79
2023-04-18T20:29:04.304Z,9.79
2023-04-18T20:31:36.433Z,9.81
2023-04-18T20:34:03.537Z,9.82
2023-04-18T20:36:41.847Z,9.82
2023-04-18T20:39:09.585Z,9.76
2023-04-18T20:41:37.284Z,9.81
2023-04-18T20:44:11.803Z,9.84
2023-04-18T20:46:43.636Z,9.84
2023-04-18T20:49:11.203Z,9.85
2023-04-18T20:51:49.495Z,9.83
2023-04-18T20:54:17.120Z,9.84
2023-04-18T20:56:43.883Z,9.87
2023-04-18T20:59:10.559Z,9.84
2023-04-18T21:01:40.122Z,9.82
2023-04-18T21:04:07.072Z,9.84
2023-04-18T21:06:33.832Z,9.82
2023-04-18T21:09:00.505Z,9.82
2023-04-18T21:11:27.100Z,9.59
2023-04-18T21:13:53.742Z,9.72
2023-04-18T21:16:20.307Z,9.72
2023-04-18T21:18:46.903Z,9.70
2023-04-18T21:21:13.743Z,9.69
2023-04-18T21:23:44.283Z,9.75
2023-04-18T21:26:13.894Z,9.73
2023-04-18T21:28:53.800Z,9.70
2023-04-18T21:31:20.674Z,9.73
2023-04-18T21:33:48.044Z,9.74
2023-04-18T21:36:14.742Z,9.77
2023-04-18T21:38:41.295Z,9.76
2023-04-18T21:41:07.959Z,9.71
2023-04-18T21:43:34.694Z,9.53
2023-04-18T21:46:01.335Z,9.60
2023-04-18T21:48:27.995Z,9.59
2023-04-18T21:50:55.527Z,9.61
2023-04-18T21:53:22.178Z,9.62
2023-04-18T21:55:48.835Z,9.55
2023-04-18T21:58:15.420Z,9.62
2023-04-18T22:00:42.002Z,9.59
2023-04-18T22:03:08.993Z,9.63
2023-04-18T22:05:36.510Z,9.62
2023-04-18T22:08:03.427Z,9.62
2023-04-18T22:10:30.007Z,9.63
2023-04-18T22:12:57.644Z,9.52
2023-04-18T22:15:24.353Z,9.46
2023-04-18T22:17:51.016Z,9.47
2023-04-18T22:20:17.662Z,9.49
2023-04-18T22:22:44.349Z,9.48
2023-04-18T22:25:11.752Z,9.51
2023-04-18T22:27:39.179Z,9.41
2023-04-18T22:30:06.391Z,9.37
2023-04-18T22:32:33.015Z,9.40
2023-04-18T22:34:59.601Z,9.24
2023-04-18T22:37:26.193Z,9.38
2023-04-18T22:39:55.572Z,9.34
2023-04-18T22:42:22.132Z,9.39
2023-04-18T22:44:48.726Z,9.36
2023-04-18T22:47:15.335Z,9.38
2023-04-18T22:49:42.115Z,9.37
2023-04-18T22:52:08.686Z,9.40
2023-04-18T22:54:39.432Z,9.37
2023-04-18T22:57:06.077Z,9.26
2023-04-18T22:59:32.701Z,9.35
2023-04-18T23:01:59.546Z,9.37
2023-04-18T23:04:30.177Z,9.39
2023-04-18T23:06:56.957Z,9.33
2023-04-18T23:09:24.490Z,9.36
2023-04-18T23:11:51.190Z,9.34
2023-04-18T23:14:17.794Z,9.36
2023-04-18T23:16:44.611Z,9.36
2023-04-18T23:19:11.345Z,9.27
2023-04-18T23:21:37.941Z,9.28
2023-04-18T23:24:04.674Z,9.31
2023-04-18T23:26:31.359Z,9.25
2023-04-18T23:28:58.129Z,9.24
2023-04-18T23:31:24.874Z,9.30
2023-04-18T23:33:51.455Z,9.27
2023-04-18T23:36:18.103Z,9.28
2023-04-18T23:38:44.733Z,9.26
2023-04-18T23:41:11.419Z,9.24
2023-04-18T23:43:38.072Z,9.13
2023-04-18T23:46:04.966Z,9.19
2023-04-18T23:48:31.574Z,9.19
2023-04-18T23:50:58.264Z,9.21
2023-04-18T23:53:25.180Z,9.24
2023-04-18T23:55:53.325Z,9.25
2023-04-18T23:58:19.899Z,9.22
